Time;durP1;ratioP1;P1;durP2;ratioP2;P2;SDS_P1;SDS_P2;PMS_P1;PMS_P2;Temp;Humidity;BMP_temperature;BMP_pressure;BME280_temperature;BME280_humidity;BME280_pressure;Samples;Min_cycle;Max_cycle;Signal;HPM_P1;HPM_P2
2021/09/05 00:00:24;;;;;;;5.75;3.90;;;;;;;15.26;67.24;96628.41;5056141;28;20030;-58
2021/09/05 00:02:49;;;;;;;5.57;3.80;;;;;;;15.25;67.53;96624.06;5056113;28;20021;-57
2021/09/05 00:05:15;;;;;;;8.27;3.60;;;;;;;15.25;68.13;96622.28;5055928;28;20477;-56
2021/09/05 00:07:41;;;;;;;4.00;3.15;;;;;;;15.29;67.70;96626.44;5055895;28;20048;-56
2021/09/05 00:10:07;;;;;;;7.15;3.55;;;;;;;15.27;67.57;96630.09;5055741;28;20029;-56
2021/09/05 00:12:33;;;;;;;7.20;3.55;;;;;;;15.29;68.47;96633.50;5056042;28;20028;-54
2021/09/05 00:14:58;;;;;;;10.93;3.92;;;;;;;15.26;68.62;96621.34;5055734;28;20029;-57
2021/09/05 00:17:24;;;;;;;5.70;3.40;;;;;;;15.24;67.98;96625.00;5055782;28;20028;-56
2021/09/05 00:19:49;;;;;;;6.13;3.35;;;;;;;15.26;67.22;96628.41;5055808;28;20029;-58
2021/09/05 00:22:15;;;;;;;8.05;3.38;;;;;;;15.20;66.37;96621.69;5055736;28;20025;-54
2021/09/05 00:24:40;;;;;;;6.78;3.90;;;;;;;15.29;68.67;96629.09;5055694;28;20060;-57
2021/09/05 00:27:06;;;;;;;4.88;3.63;;;;;;;15.28;68.44;96626.53;5055695;28;20043;-57
2021/09/05 00:29:32;;;;;;;6.30;3.85;;;;;;;15.22;67.98;96633.00;5055471;28;20497;-57
2021/09/05 00:31:57;;;;;;;6.38;3.90;;;;;;;15.23;67.48;96634.69;5055581;28;20021;-54
2021/09/05 00:34:23;;;;;;;5.65;3.90;;;;;;;15.23;67.25;96626.78;5055498;28;20056;-56
2021/09/05 00:36:48;;;;;;;6.38;3.75;;;;;;;15.19;67.73;96633.16;5054810;28;20021;-56
2021/09/05 00:39:14;;;;;;;6.13;3.90;;;;;;;15.18;67.59;96630.63;5055303;28;20021;-53
2021/09/05 00:41:40;;;;;;;6.82;2.90;;;;;;;15.08;67.48;96622.38;5055351;28;20052;-57
2021/09/05 00:44:07;;;;;;;4.57;3.17;;;;;;;14.98;67.67;96628.16;5055498;28;20023;-55
2021/09/05 00:46:35;;;;;;;9.77;3.40;;;;;;;14.92;67.76;96631.09;5055371;28;20045;-56
2021/09/05 00:49:01;;;;;;;8.80;3.58;;;;;;;14.89;68.35;96628.63;5055163;28;20069;-58
2021/09/05 00:51:30;;;;;;;5.30;3.45;;;;;;;14.87;68.25;96633.16;5055141;28;20083;-54
2021/09/05 00:53:57;;;;;;;4.63;3.45;;;;;;;14.88;68.46;96629.56;5055101;28;20021;-55
2021/09/05 00:56:25;;;;;;;6.10;3.33;;;;;;;14.83;67.88;96629.81;5055169;28;20021;-56
2021/09/05 00:58:54;;;;;;;9.68;3.20;;;;;;;14.83;67.19;96626.31;5054832;28;20506;-55
2021/09/05 01:01:21;;;;;;;6.03;3.88;;;;;;;14.84;65.72;96620.97;5054926;28;20071;-56
2021/09/05 01:03:46;;;;;;;6.63;3.92;;;;;;;14.86;67.89;96623.53;5054888;28;20028;-55
2021/09/05 01:06:12;;;;;;;6.32;3.60;;;;;;;14.86;68.21;96632.28;5054810;28;20434;-54
2021/09/05 01:08:38;;;;;;;6.05;3.80;;;;;;;14.85;67.82;96632.38;5054669;28;20025;-57
2021/09/05 01:11:04;;;;;;;5.22;3.50;;;;;;;14.81;68.25;96633.47;5054836;28;20107;-55
2021/09/05 01:13:29;;;;;;;8.82;3.60;;;;;;;14.79;67.22;96636.19;5054721;28;20387;-56
2021/09/05 01:15:55;;;;;;;8.27;3.60;;;;;;;14.81;67.67;96642.22;5054731;28;20029;-57
2021/09/05 01:18:21;;;;;;;7.20;3.47;;;;;;;14.82;67.92;96637.81;5054616;28;20100;-55
2021/09/05 01:20:46;;;;;;;4.35;3.40;;;;;;;14.86;68.33;96644.59;5054558;28;20033;-56
2021/09/05 01:23:12;;;;;;;10.00;5.03;;;;;;;14.87;68.11;96635.78;5054600;28;20024;-56
2021/09/05 01:25:38;;;;;;;6.97;3.65;;;;;;;14.87;68.23;96638.41;5054497;28;20035;-54
2021/09/05 01:28:07;;;;;;;6.28;3.80;;;;;;;14.81;68.33;96634.31;5054332;28;20064;-57
2021/09/05 01:30:34;;;;;;;5.43;3.58;;;;;;;14.77;67.89;96640.66;5054286;28;20025;-55
2021/09/05 01:33:01;;;;;;;4.47;3.30;;;;;;;14.81;68.17;96636.13;5054320;28;20096;-56
2021/09/05 01:35:26;;;;;;;5.72;3.25;;;;;;;14.77;68.39;96633.59;5054350;28;20028;-57
2021/09/05 01:37:52;;;;;;;5.38;3.53;;;;;;;14.77;68.27;96636.25;5054263;28;20096;-56
2021/09/05 01:40:17;;;;;;;6.50;3.58;;;;;;;14.71;68.37;96636.56;5054129;28;20108;-57
2021/09/05 01:42:43;;;;;;;6.85;3.35;;;;;;;14.68;68.53;96641.13;5054161;28;20021;-54
2021/09/05 01:45:09;;;;;;;4.32;3.28;;;;;;;14.67;68.21;96642.94;5054110;28;20554;-58
2021/09/05 01:47:34;;;;;;;11.00;3.28;;;;;;;14.72;67.93;96640.88;5052878;28;20359;-56
2021/09/05 01:50:00;;;;;;;5.72;3.67;;;;;;;14.75;67.65;96637.25;5053080;28;20032;-57
2021/09/05 01:52:25;;;;;;;4.78;3.30;;;;;;;14.74;67.35;96639.03;5054031;28;20135;-54
2021/09/05 01:54:51;;;;;;;7.13;4.07;;;;;;;14.79;67.61;96641.47;5053901;28;20017;-58
2021/09/05 01:57:16;;;;;;;5.60;3.45;;;;;;;14.84;68.50;96641.22;5053979;28;20083;-54
2021/09/05 01:59:41;;;;;;;5.10;3.65;;;;;;;14.77;69.00;96638.88;5053666;28;20045;-56
2021/09/05 02:02:07;;;;;;;7.40;3.83;;;;;;;14.72;68.46;96630.34;5053874;28;20391;-56
2021/09/05 02:04:33;;;;;;;7.28;3.47;;;;;;;14.71;67.64;96631.31;5053899;28;20471;-56
2021/09/05 02:06:58;;;;;;;6.57;3.97;;;;;;;14.77;68.30;96630.97;5053718;28;20478;-56
2021/09/05 02:09:24;;;;;;;6.38;3.30;;;;;;;14.77;68.55;96627.47;5053624;28;20032;-53
2021/09/05 02:11:51;;;;;;;7.55;3.70;;;;;;;14.73;68.91;96631.22;5053627;28;20348;-55
2021/09/05 02:14:17;;;;;;;4.72;3.97;;;;;;;14.75;69.10;96627.56;5053507;28;20037;-56
2021/09/05 02:16:42;;;;;;;11.25;3.58;;;;;;;14.73;69.05;96633.84;5053512;28;20143;-58
2021/09/05 02:19:08;;;;;;;6.28;4.05;;;;;;;14.73;69.07;96637.34;5053437;28;20025;-55
2021/09/05 02:21:33;;;;;;;6.43;3.55;;;;;;;14.78;69.29;96637.13;5053504;28;20028;-55
2021/09/05 02:23:59;;;;;;;8.48;3.88;;;;;;;14.77;69.41;96630.13;5053396;28;20102;-55
2021/09/05 02:26:24;;;;;;;8.30;3.50;;;;;;;14.73;68.92;96625.94;5053371;28;20100;-54
2021/09/05 02:28:50;;;;;;;6.80;3.92;;;;;;;14.75;69.04;96629.38;5053239;28;20033;-56
2021/09/05 02:31:15;;;;;;;7.50;4.07;;;;;;;14.79;69.03;96625.66;5053244;28;20133;-56
2021/09/05 02:33:41;;;;;;;6.35;4.05;;;;;;;14.81;69.26;96628.22;5053269;28;20087;-54
2021/09/05 02:36:07;;;;;;;4.75;3.78;;;;;;;14.77;69.36;96627.47;5053230;28;20079;-56
2021/09/05 02:38:32;;;;;;;4.30;3.30;;;;;;;14.78;68.73;96629.22;5053392;28;20025;-58
2021/09/05 02:40:58;;;;;;;7.13;3.88;;;;;;;14.75;68.57;96624.09;5053137;28;20017;-54
2021/09/05 02:43:23;;;;;;;6.43;4.25;;;;;;;14.75;69.42;96632.00;5053142;28;20437;-58
2021/09/05 02:45:49;;;;;;;6.57;3.92;;;;;;;14.75;68.88;96632.81;5053169;28;20031;-57
2021/09/05 02:48:14;;;;;;;6.22;3.70;;;;;;;14.76;69.12;96637.19;5052984;28;20463;-57
2021/09/05 02:50:40;;;;;;;6.63;4.20;;;;;;;14.80;69.19;96637.03;5053096;28;20032;-57
2021/09/05 02:53:06;;;;;;;6.88;4.35;;;;;;;14.77;69.34;96638.00;5053078;28;20021;-55
2021/09/05 02:55:31;;;;;;;5.30;3.72;;;;;;;14.74;69.10;96640.81;5053035;28;20029;-57
2021/09/05 02:57:57;;;;;;;6.03;3.78;;;;;;;14.66;68.93;96638.59;5052782;28;20075;-54
2021/09/05 03:00:22;;;;;;;6.35;4.20;;;;;;;14.64;68.77;96643.09;5052872;28;20037;-57
2021/09/05 03:02:48;;;;;;;6.82;3.70;;;;;;;14.63;68.79;96639.59;5052967;28;20025;-56
2021/09/05 03:05:13;;;;;;;6.53;3.78;;;;;;;14.59;68.47;96645.09;5052903;28;20069;-57
2021/09/05 03:07:39;;;;;;;8.20;4.07;;;;;;;14.55;68.29;96639.16;5052873;28;20455;-54
2021/09/05 03:10:05;;;;;;;8.23;3.55;;;;;;;14.50;68.55;96641.16;5052782;28;20032;-55
2021/09/05 03:12:30;;;;;;;5.38;2.97;;;;;;;14.45;68.53;96636.16;5052948;28;20071;-58
2021/09/05 03:14:56;;;;;;;9.38;3.80;;;;;;;14.37;68.52;96641.84;5052873;28;20086;-58
2021/09/05 03:17:21;;;;;;;9.50;3.70;;;;;;;14.33;68.47;96650.78;5052980;28;20068;-54
2021/09/05 03:19:47;;;;;;;5.82;3.95;;;;;;;14.24;68.66;96651.28;5052779;28;20021;-58
2021/09/05 03:22:12;;;;;;;7.18;3.70;;;;;;;14.13;68.84;96655.31;5052729;28;20036;-56
2021/09/05 03:24:38;;;;;;;5.20;3.58;;;;;;;14.10;69.12;96649.34;5052833;28;20025;-55
2021/09/05 03:27:03;;;;;;;9.10;3.38;;;;;;;14.08;68.63;96656.44;5052709;28;20382;-56
2021/09/05 03:29:29;;;;;;;7.03;3.60;;;;;;;14.07;69.21;96663.50;5052550;28;20029;-56
2021/09/05 03:31:54;;;;;;;5.97;4.00;;;;;;;14.06;68.84;96659.16;5052574;28;20017;-55
2021/09/05 03:34:20;;;;;;;6.57;3.88;;;;;;;14.00;68.66;96662.13;5052531;28;20108;-57
2021/09/05 03:36:46;;;;;;;6.50;3.83;;;;;;;13.98;68.73;96664.81;5052667;28;20056;-54
2021/09/05 03:39:12;;;;;;;6.07;4.68;;;;;;;13.95;68.91;96661.47;5052614;28;20029;-58
2021/09/05 03:41:37;;;;;;;5.20;3.40;;;;;;;13.92;68.95;96672.16;5052534;28;20091;-57
2021/09/05 03:44:03;;;;;;;5.70;3.35;;;;;;;13.90;68.65;96665.19;5052530;28;20021;-59
2021/09/05 03:46:29;;;;;;;5.00;3.72;;;;;;;13.84;67.76;96667.25;5052549;28;20025;-55
2021/09/05 03:48:54;;;;;;;3.63;2.95;;;;;;;13.79;67.63;96675.41;5052415;28;20025;-55
2021/09/05 03:51:20;;;;;;;5.40;3.55;;;;;;;13.79;67.66;96672.78;5052458;28;20100;-57
2021/09/05 03:53:45;;;;;;;4.97;3.35;;;;;;;13.75;67.74;96672.06;5052414;28;20048;-57
2021/09/05 03:56:11;;;;;;;6.43;3.97;;;;;;;13.73;67.76;96678.31;5052495;28;20036;-59
2021/09/05 03:58:37;;;;;;;6.90;3.30;;;;;;;13.62;68.03;96677.06;5052232;28;20491;-56
2021/09/05 04:01:02;;;;;;;6.00;4.22;;;;;;;13.56;67.68;96681.75;5052313;28;20382;-55
2021/09/05 04:03:28;;;;;;;5.68;3.38;;;;;;;13.52;67.32;96679.28;5052340;28;20063;-59
2021/09/05 04:05:54;;;;;;;6.57;3.58;;;;;;;13.48;68.54;96679.44;5051067;28;20029;-56
2021/09/05 04:08:29;;;;;;;7.68;3.45;;;;;;;13.47;68.12;96677.75;5050969;28;20548;-59
2021/09/05 04:10:54;;;;;;;6.75;3.67;;;;;;;13.39;67.71;96686.00;5052405;28;20108;-58
2021/09/05 04:13:20;;;;;;;6.82;3.40;;;;;;;13.35;68.33;96684.44;5054831;28;20105;-57
2021/09/05 04:15:45;;;;;;;7.13;3.72;;;;;;;13.39;68.75;96686.00;5056011;28;20049;-58
2021/09/05 04:18:11;;;;;;;4.70;3.42;;;;;;;13.44;68.53;96686.66;5055799;28;20028;-58
2021/09/05 04:20:36;;;;;;;4.15;3.20;;;;;;;13.50;68.44;96683.75;5055653;28;20048;-58
2021/09/05 04:23:02;;;;;;;4.70;3.13;;;;;;;13.57;68.22;96689.56;5055784;28;20035;-59
2021/09/05 04:25:27;;;;;;;6.15;3.10;;;;;;;13.65;68.57;96691.84;5055795;28;20430;-58
2021/09/05 04:27:53;;;;;;;6.53;3.47;;;;;;;13.71;68.23;96686.28;5055648;28;20462;-59
2021/09/05 04:30:18;;;;;;;4.43;2.80;;;;;;;13.82;67.77;96682.28;5055445;28;20032;-59
2021/09/05 04:32:44;;;;;;;4.28;3.13;;;;;;;13.90;67.43;96699.38;5055576;28;20033;-58
2021/09/05 04:35:09;;;;;;;5.35;3.40;;;;;;;13.96;67.70;96702.63;5055411;28;20517;-59
2021/09/05 04:37:35;;;;;;;5.35;3.45;;;;;;;14.00;67.53;96691.03;5054247;28;20119;-56
2021/09/05 04:40:02;;;;;;;5.10;3.28;;;;;;;14.07;67.05;96686.31;5055374;28;20088;-60
2021/09/05 04:42:27;;;;;;;9.98;3.63;;;;;;;14.09;67.57;96690.56;5055407;28;20021;-59
2021/09/05 04:44:53;;;;;;;6.22;3.60;;;;;;;14.17;67.83;96689.34;5055324;28;20021;-57
2021/09/05 04:47:20;;;;;;;4.85;3.20;;;;;;;14.25;68.14;96693.31;5055461;28;20462;-57
2021/09/05 04:49:45;;;;;;;5.07;3.20;;;;;;;14.34;67.79;96697.25;5055211;28;20379;-58
2021/09/05 04:52:11;;;;;;;3.95;2.95;;;;;;;14.40;67.25;96696.94;5055097;28;20021;-59
2021/09/05 04:54:37;;;;;;;5.85;3.20;;;;;;;14.49;67.85;96698.25;5055019;28;20025;-57
2021/09/05 04:57:03;;;;;;;5.93;3.42;;;;;;;14.61;68.31;96698.53;5055016;28;20017;-58
2021/09/05 04:59:28;;;;;;;7.35;3.30;;;;;;;14.67;67.67;96698.22;5054795;28;20049;-60
2021/09/05 05:01:54;;;;;;;5.65;3.50;;;;;;;14.70;67.01;96689.28;5055023;28;20478;-58
2021/09/05 05:04:19;;;;;;;6.95;3.67;;;;;;;14.74;67.69;96707.50;5054967;28;20386;-58
2021/09/05 05:06:46;;;;;;;6.70;2.88;;;;;;;14.82;67.25;96701.00;5054802;28;20421;-60
2021/09/05 05:09:12;;;;;;;4.43;3.30;;;;;;;14.92;66.47;96699.56;5054785;28;20037;-57
2021/09/05 05:11:39;;;;;;;5.50;3.60;;;;;;;15.07;69.21;96702.31;5054913;28;20025;-56
2021/09/05 05:14:06;;;;;;;4.78;3.30;;;;;;;15.13;68.80;96704.63;5054862;28;20375;-60
2021/09/05 05:16:32;;;;;;;5.18;3.28;;;;;;;15.23;69.27;96703.19;5054754;28;20134;-58
2021/09/05 05:18:57;;;;;;;6.10;3.40;;;;;;;15.34;70.10;96707.03;5054586;28;20474;-57
2021/09/05 05:21:27;;;;;;;4.68;3.58;;;;;;;15.45;69.42;96703.81;5054583;28;20053;-58
2021/09/05 05:23:57;;;;;;;5.10;3.45;;;;;;;15.49;68.31;96703.56;5054426;28;20033;-59
2021/09/05 05:26:24;;;;;;;9.50;3.63;;;;;;;15.61;68.59;96709.94;5054576;28;20390;-57
2021/09/05 05:28:50;;;;;;;8.85;3.50;;;;;;;15.70;70.13;96719.13;5054314;28;20043;-57
2021/09/05 05:31:16;;;;;;;7.35;4.20;;;;;;;15.78;69.23;96716.88;5054368;28;20441;-59
2021/09/05 05:33:42;;;;;;;9.45;3.55;;;;;;;15.90;68.56;96717.16;5054398;28;20021;-55
2021/09/05 05:36:08;;;;;;;6.70;4.13;;;;;;;16.02;67.82;96723.53;5054253;28;20075;-58
2021/09/05 05:38:34;;;;;;;4.50;3.47;;;;;;;16.09;67.29;96726.66;5054332;28;20026;-58
2021/09/05 05:40:59;;;;;;;5.57;3.45;;;;;;;16.19;67.13;96719.91;5054269;28;20474;-58
2021/09/05 05:43:25;;;;;;;5.60;3.20;;;;;;;16.31;66.43;96715.72;5054077;28;20409;-58
2021/09/05 05:45:51;;;;;;;7.18;3.20;;;;;;;16.42;65.79;96712.44;5054265;28;20048;-57
2021/09/05 05:48:17;;;;;;;5.57;3.55;;;;;;;16.53;64.48;96714.47;5054159;28;20025;-58
2021/09/05 05:50:43;;;;;;;5.65;3.40;;;;;;;16.70;64.61;96716.06;5054043;28;20447;-58
2021/09/05 05:53:10;;;;;;;8.52;3.40;;;;;;;16.90;64.04;96714.88;5053950;28;20029;-57
2021/09/05 05:55:36;;;;;;;11.43;4.00;;;;;;;17.13;63.08;96720.56;5053878;28;20075;-58
2021/09/05 05:58:01;;;;;;;6.43;3.20;;;;;;;17.34;62.46;96709.59;5053687;28;20041;-58
2021/09/05 06:00:30;;;;;;;9.23;3.22;;;;;;;17.62;61.29;96718.44;5053906;28;20028;-60
2021/09/05 06:02:56;;;;;;;5.78;4.00;;;;;;;17.88;62.05;96720.34;5053805;28;20028;-59
2021/09/05 06:05:22;;;;;;;8.77;3.85;;;;;;;18.49;61.13;96719.06;5053871;28;20017;-58
2021/09/05 06:07:48;;;;;;;7.28;3.42;;;;;;;19.13;60.72;96714.75;5053626;28;20517;-60
2021/09/05 06:10:14;;;;;;;5.97;3.22;;;;;;;20.27;56.62;96725.25;5053611;28;20474;-58
2021/09/05 06:12:40;;;;;;;4.35;2.70;;;;;;;21.39;52.30;96722.09;5053632;28;20021;-58
2021/09/05 06:15:07;;;;;;;8.68;3.20;;;;;;;22.43;48.28;96723.50;5053602;28;20027;-59
2021/09/05 06:17:33;;;;;;;5.50;3.13;;;;;;;23.35;46.60;96730.94;5053631;28;20021;-59
2021/09/05 06:19:58;;;;;;;4.95;3.25;;;;;;;24.00;43.81;96726.22;5053532;28;20028;-60
2021/09/05 06:22:24;;;;;;;5.63;3.15;;;;;;;24.75;42.04;96723.03;5053518;28;20041;-59
2021/09/05 06:24:49;;;;;;;5.43;3.00;;;;;;;25.34;40.39;96730.91;5053556;28;20104;-59
2021/09/05 06:27:15;;;;;;;7.13;3.30;;;;;;;25.61;39.51;96725.72;5053405;28;20051;-58
2021/09/05 06:29:40;;;;;;;3.30;3.00;;;;;;;25.79;40.11;96733.00;5053226;28;20041;-60
2021/09/05 06:32:09;;;;;;;5.00;3.40;;;;;;;26.18;38.96;96732.72;5053365;28;20086;-59
2021/09/05 06:34:37;;;;;;;4.45;3.17;;;;;;;26.46;38.13;96734.50;5052969;28;20057;-59
2021/09/05 06:37:03;;;;;;;7.05;3.10;;;;;;;26.59;39.39;96734.09;5053349;28;20021;-57
2021/09/05 06:39:29;;;;;;;16.65;3.78;;;;;;;26.63;36.91;96738.16;5053311;28;20040;-58
2021/09/05 06:41:54;;;;;;;5.43;3.42;;;;;;;26.08;38.13;96737.31;5053173;28;20112;-57
2021/09/05 06:44:21;;;;;;;4.40;3.58;;;;;;;25.73;40.53;96735.25;5053116;28;20398;-59
2021/09/05 06:46:46;;;;;;;10.65;3.47;;;;;;;25.65;41.60;96742.34;5053108;28;20056;-58
2021/09/05 06:49:12;;;;;;;7.63;3.72;;;;;;;25.74;40.93;96742.28;5053075;28;20068;-58
2021/09/05 06:51:38;;;;;;;4.63;3.30;;;;;;;25.92;39.49;96740.66;5053074;28;20048;-58
2021/09/05 06:54:03;;;;;;;4.28;3.33;;;;;;;26.00;39.33;96743.41;5053042;28;20060;-59
2021/09/05 06:56:29;;;;;;;4.43;2.83;;;;;;;26.33;38.67;96738.41;5053113;28;20017;-59
2021/09/05 06:58:55;;;;;;;6.60;3.30;;;;;;;26.75;37.75;96738.75;5052771;28;20095;-59
2021/09/05 07:01:20;;;;;;;5.82;3.53;;;;;;;27.31;36.94;96743.84;5052910;28;20360;-57
2021/09/05 07:03:46;;;;;;;4.90;2.92;;;;;;;27.80;36.48;96745.09;5053030;28;20032;-59
2021/09/05 07:06:12;;;;;;;4.50;3.13;;;;;;;27.90;35.83;96746.81;5052837;28;20502;-58
2021/09/05 07:08:38;;;;;;;5.60;3.10;;;;;;;27.98;36.27;96752.19;5052754;28;20033;-58
2021/09/05 07:11:04;;;;;;;5.07;3.53;;;;;;;28.07;36.36;96756.59;5052848;28;20021;-58
2021/09/05 07:13:30;;;;;;;5.28;3.40;;;;;;;28.11;35.17;96757.13;5052977;28;20029;-59
2021/09/05 07:15:55;;;;;;;3.72;2.97;;;;;;;28.30;35.74;96757.84;5052920;28;20021;-58
2021/09/05 07:18:24;;;;;;;4.00;3.20;;;;;;;28.28;36.58;96757.97;5052891;28;20508;-59
2021/09/05 07:20:50;;;;;;;5.15;3.15;;;;;;;28.25;29.53;96758.31;5052754;28;20035;-59
2021/09/05 07:23:16;;;;;;;5.03;3.00;;;;;;;27.98;31.56;96754.88;5052841;28;20025;-59
2021/09/05 07:25:42;;;;;;;10.43;3.15;;;;;;;27.84;31.66;96767.13;5052781;28;20109;-59
2021/09/05 07:28:07;;;;;;;4.55;3.20;;;;;;;27.65;29.83;96752.94;5052760;28;20425;-58
2021/09/05 07:30:33;;;;;;;4.63;3.00;;;;;;;27.47;31.73;96756.50;5052740;28;20379;-58
2021/09/05 07:32:59;;;;;;;7.13;3.05;;;;;;;27.05;29.17;96770.69;5052666;28;20032;-56
2021/09/05 07:35:25;;;;;;;5.35;3.13;;;;;;;26.96;28.71;96767.94;5052628;28;20471;-58
2021/09/05 07:37:50;;;;;;;9.77;2.80;;;;;;;26.78;30.65;96773.31;5052698;28;20029;-58
2021/09/05 07:40:19;;;;;;;4.40;3.03;;;;;;;26.62;31.42;96763.31;5052636;28;20360;-59
2021/09/05 07:42:45;;;;;;;6.03;3.25;;;;;;;26.86;31.11;96769.88;5052632;28;20051;-58
2021/09/05 07:45:11;;;;;;;3.70;3.03;;;;;;;26.80;30.60;96776.69;5052515;28;20048;-59
2021/09/05 07:47:37;;;;;;;6.15;2.95;;;;;;;26.69;30.26;96772.41;5053975;28;20368;-60
2021/09/05 07:50:04;;;;;;;4.10;2.80;;;;;;;26.93;29.11;96765.56;5056300;28;20360;-58
2021/09/05 07:52:30;;;;;;;6.65;3.50;;;;;;;27.11;28.49;96770.06;5056285;28;20025;-60
2021/09/05 07:54:56;;;;;;;4.88;3.53;;;;;;;26.86;28.63;96776.09;5056297;28;20478;-58
2021/09/05 07:57:22;;;;;;;5.20;3.30;;;;;;;26.83;30.43;96776.38;5056197;28;20060;-57
2021/09/05 07:59:47;;;;;;;7.35;3.22;;;;;;;26.85;29.87;96777.06;5056173;28;20060;-57
2021/09/05 08:02:13;;;;;;;4.65;3.33;;;;;;;26.62;29.87;96780.25;5056040;28;20107;-57
2021/09/05 08:04:38;;;;;;;7.47;3.40;;;;;;;26.12;29.24;96776.19;5056094;28;20024;-57
2021/09/05 08:07:04;;;;;;;5.90;2.85;;;;;;;25.65;31.72;96766.47;5056178;28;20021;-58
2021/09/05 08:09:30;;;;;;;5.40;3.30;;;;;;;25.58;32.95;96771.50;5055862;28;20029;-59
2021/09/05 08:11:56;;;;;;;6.78;2.80;;;;;;;25.71;32.61;96768.56;5055898;28;20103;-58
2021/09/05 08:14:26;;;;;;;8.60;3.13;;;;;;;25.89;33.92;96771.28;5055941;28;20025;-58
2021/09/05 08:16:52;;;;;;;5.50;3.40;;;;;;;26.00;31.93;96767.53;5055903;28;20028;-56
2021/09/05 08:19:17;;;;;;;6.90;3.25;;;;;;;26.08;33.32;96772.13;5055768;28;20516;-58
2021/09/05 08:21:43;;;;;;;8.68;3.20;;;;;;;25.96;33.21;96774.19;5055749;28;20055;-59
2021/09/05 08:24:09;;;;;;;6.93;3.75;;;;;;;26.01;32.81;96771.06;5055824;28;20025;-59
2021/09/05 08:26:34;;;;;;;6.97;3.88;;;;;;;26.07;33.89;96767.78;5055703;28;20017;-58
2021/09/05 08:29:00;;;;;;;6.80;3.35;;;;;;;25.52;31.66;96766.78;5055625;28;20045;-59
2021/09/05 08:31:25;;;;;;;6.53;3.40;;;;;;;24.64;34.84;96774.81;5055624;28;20029;-56
2021/09/05 08:33:51;;;;;;;4.13;3.47;;;;;;;24.53;34.59;96773.13;5055441;28;20029;-59
2021/09/05 08:36:17;;;;;;;6.38;3.53;;;;;;;24.43;33.83;96769.63;5055495;28;20032;-59
2021/09/05 08:38:43;;;;;;;5.40;3.63;;;;;;;24.40;35.92;96768.06;5055480;28;20059;-58
2021/09/05 08:41:08;;;;;;;8.25;3.40;;;;;;;24.40;33.52;96769.88;5055550;28;20029;-57
2021/09/05 08:43:37;;;;;;;7.55;3.63;;;;;;;24.60;35.13;96768.91;5055382;28;20470;-59
2021/09/05 08:46:04;;;;;;;6.20;3.28;;;;;;;24.78;35.35;96773.56;5055250;28;20543;-58
2021/09/05 08:48:30;;;;;;;6.40;2.90;;;;;;;24.89;34.20;96777.09;5055098;28;20027;-58
2021/09/05 08:50:56;;;;;;;7.82;3.70;;;;;;;24.90;34.32;96768.94;5055193;28;20029;-58
2021/09/05 08:53:21;;;;;;;4.68;3.17;;;;;;;24.43;34.75;96773.13;5055177;28;20025;-58
2021/09/05 08:55:48;;;;;;;4.15;3.05;;;;;;;24.20;34.45;96764.56;5055177;28;20037;-59
2021/09/05 08:58:14;;;;;;;6.38;3.70;;;;;;;24.33;35.31;96764.28;5054345;28;20048;-57
2021/09/05 09:00:43;;;;;;;6.68;3.78;;;;;;;24.26;35.21;96768.50;5055019;28;20025;-57
2021/09/05 09:03:11;;;;;;;7.53;4.13;;;;;;;24.23;36.48;96767.78;5055029;28;20024;-58
2021/09/05 09:05:42;;;;;;;9.75;3.80;;;;;;;24.09;35.21;96763.66;5054942;28;20100;-58
2021/09/05 09:08:12;;;;;;;4.60;3.03;;;;;;;24.17;37.31;96757.63;5054870;28;20100;-57
2021/09/05 09:11:03;;;;;;;;;;;;;;;24.15;35.81;96758.78;5055293;28;20040;-59
2021/09/05 09:13:36;;;;;;;7.18;3.83;;;;;;;24.00;35.93;96758.28;5054786;28;19913;-59
2021/09/05 09:16:13;;;;;;;5.63;4.10;;;;;;;23.88;35.03;96758.41;5054708;28;20545;-57
2021/09/05 09:18:41;;;;;;;5.97;4.03;;;;;;;23.82;36.86;96764.31;5054763;28;20029;-58
2021/09/05 09:21:10;;;;;;;4.63;3.70;;;;;;;23.63;36.07;96760.56;5054630;28;20028;-57
2021/09/05 09:23:37;;;;;;;10.20;4.65;;;;;;;23.49;36.28;96756.47;5054578;28;20024;-59
2021/09/05 09:26:15;;;;;;;9.50;3.65;;;;;;;23.48;39.13;96758.28;5054576;28;20426;-58
2021/09/05 09:28:47;;;;;;;6.07;4.30;;;;;;;23.14;37.33;96765.69;5054357;28;20057;-57
2021/09/05 09:31:18;;;;;;;10.45;4.93;;;;;;;23.02;38.29;96767.59;5054529;28;20029;-57
2021/09/05 09:34:06;;;;;;;8.27;4.07;;;;;;;22.91;37.43;96760.50;5054400;28;20471;-58
2021/09/05 09:36:32;;;;;;;6.47;3.70;;;;;;;22.83;37.61;96759.34;5054270;28;20479;-57
2021/09/05 09:39:06;;;;;;;12.18;5.22;;;;;;;22.99;39.93;96757.19;5054160;28;20100;-57
2021/09/05 09:41:41;;;;;;;7.97;4.18;;;;;;;23.07;39.53;96755.56;5054236;28;20041;-57
2021/09/05 09:44:09;;;;;;;8.65;4.10;;;;;;;23.13;37.86;96740.84;5054187;28;20044;-57
2021/09/05 09:46:36;;;;;;;9.57;4.60;;;;;;;23.47;41.57;96748.59;5054089;28;20510;-57
2021/09/05 09:49:07;;;;;;;8.52;3.80;;;;;;;24.07;37.51;96746.91;5054058;28;20029;-59
2021/09/05 09:51:34;;;;;;;9.50;4.20;;;;;;;24.49;34.15;96745.00;5054197;28;20025;-55
2021/09/05 09:54:00;;;;;;;6.85;4.07;;;;;;;24.54;32.24;96748.09;5054046;28;20441;-56
2021/09/05 09:56:27;;;;;;;7.90;4.07;;;;;;;24.48;35.14;96754.00;5053945;28;20569;-58
2021/09/05 09:59:02;;;;;;;9.90;4.00;;;;;;;24.29;34.13;96758.34;5053656;28;20041;-59
2021/09/05 10:01:29;;;;;;;7.68;4.07;;;;;;;23.85;32.56;96756.03;5053851;28;20032;-57
2021/09/05 10:03:57;;;;;;;5.35;4.00;;;;;;;23.81;31.41;96749.28;5053796;28;20024;-57
2021/09/05 10:06:25;;;;;;;6.95;4.30;;;;;;;23.89;31.83;96745.88;5053726;28;20059;-58
2021/09/05 10:08:55;;;;;;;9.80;4.95;;;;;;;24.06;32.70;96741.72;5053670;28;20414;-59
2021/09/05 10:11:22;;;;;;;6.13;4.07;;;;;;;23.99;32.19;96752.13;5053032;28;20028;-58
2021/09/05 10:13:49;;;;;;;6.75;4.10;;;;;;;23.96;33.24;96742.53;5053609;28;20021;-60
2021/09/05 10:16:14;;;;;;;5.90;4.60;;;;;;;24.09;34.47;96747.63;5053595;28;20029;-57
2021/09/05 10:18:48;;;;;;;12.07;4.55;;;;;;;24.04;34.19;96743.66;5053588;28;20178;-58
2021/09/05 10:21:16;;;;;;;5.90;4.10;;;;;;;23.93;32.65;96752.66;5053498;28;20028;-57
2021/09/05 10:23:47;;;;;;;6.57;4.28;;;;;;;23.85;33.06;96759.53;5053404;28;20064;-58
2021/09/05 10:26:14;;;;;;;9.27;4.47;;;;;;;23.70;32.54;96760.91;5052206;28;20031;-58
2021/09/05 10:28:51;;;;;;;6.18;3.97;;;;;;;23.36;31.81;96759.34;5053305;28;20052;-57
2021/09/05 10:31:29;;;;;;;6.95;4.05;;;;;;;23.26;32.86;96751.28;5053539;28;20071;-58
2021/09/05 10:33:55;;;;;;;6.07;4.07;;;;;;;23.12;33.23;96754.31;5053333;28;20025;-58
2021/09/05 10:36:25;;;;;;;6.47;3.85;;;;;;;23.06;33.77;96756.50;5053307;28;20115;-56
2021/09/05 10:39:06;;;;;;;7.32;4.30;;;;;;;23.03;35.00;96755.94;5053234;28;20033;-59
2021/09/05 10:41:32;;;;;;;5.15;3.42;;;;;;;23.32;33.15;96748.09;5053207;28;20037;-59
2021/09/05 10:44:06;;;;;;;6.35;4.25;;;;;;;23.50;32.76;96749.31;5053184;28;20028;-58
2021/09/05 10:46:39;;;;;;;7.22;4.25;;;;;;;23.45;30.05;96744.38;5053142;28;20017;-59
2021/09/05 10:49:06;;;;;;;7.25;3.75;;;;;;;23.35;30.24;96755.81;5052973;28;20127;-59
2021/09/05 10:51:39;;;;;;;5.30;3.50;;;;;;;23.28;31.30;96751.16;5053087;28;20382;-58
2021/09/05 10:54:08;;;;;;;7.85;4.00;;;;;;;23.28;31.75;96752.00;5053097;28;20035;-60
2021/09/05 10:56:35;;;;;;;6.30;3.85;;;;;;;23.35;30.08;96745.16;5053072;28;20021;-58
2021/09/05 10:59:06;;;;;;;6.85;3.58;;;;;;;23.41;31.56;96749.13;5052621;28;20562;-56
2021/09/05 11:01:41;;;;;;;6.65;3.70;;;;;;;23.40;31.13;96747.44;5052968;28;20509;-57
2021/09/05 11:04:12;;;;;;;7.68;3.97;;;;;;;23.50;31.93;96744.81;5052895;28;20029;-59
2021/09/05 11:06:50;;;;;;;6.25;3.80;;;;;;;23.71;34.48;96742.06;5052867;28;20036;-59
2021/09/05 11:09:24;;;;;;;7.15;3.80;;;;;;;24.08;33.59;96747.78;5052889;28;20033;-57
2021/09/05 11:12:00;;;;;;;5.53;3.72;;;;;;;24.48;31.89;96749.50;5053011;28;20036;-58
2021/09/05 11:14:35;;;;;;;4.80;3.72;;;;;;;24.88;29.66;96740.63;5052745;28;20040;-59
2021/09/05 11:17:02;;;;;;;5.63;4.03;;;;;;;25.25;30.41;96745.16;5052909;28;20025;-58
2021/09/05 11:19:30;;;;;;;7.65;4.13;;;;;;;25.37;29.66;96748.50;5052730;28;20110;-60
2021/09/05 11:21:56;;;;;;;6.15;4.15;;;;;;;25.26;29.18;96746.00;5054972;28;20152;-59
2021/09/05 11:24:22;;;;;;;7.20;4.80;;;;;;;25.22;29.50;96745.44;5056899;28;20111;-57
2021/09/05 11:27:08;;;;;;;7.57;3.97;;;;;;;25.18;29.44;96746.72;5056725;28;20109;-58
2021/09/05 11:29:34;;;;;;;7.93;4.10;;;;;;;25.06;28.55;96741.56;5056555;28;20040;-59
2021/09/05 11:32:00;;;;;;;8.80;4.25;;;;;;;24.67;30.53;96744.28;5056674;28;20041;-59